Terminal Aerodrome Forecast
Issued by NWS

Home | Current Version | Previous Version | Text Only | Print | Product List | Glossary Off
Versions: 1 2 3 4 5 6 7 8 9 10 11 12 13 14 15 16 17 18 19 20 21 22 23 24 25 26 27

583
FTUS43 KLOT 172340
TAFORD
TAF
KORD 172340Z 1800/1906 04005KT P6SM SKC
     FM181300 09012G18KT P6SM BKN050 OVC120
     FM181630 07014G21KT 4SM -SHRA VCTS OVC025CB PROB30 1817/1820
      2SM TSRAGS
     FM182000 01012G20KT 1 1/2SM -DZRA BR OVC006
     FM190200 35014G22KT 1SM -SN BR OVC007=

USA.gov is the U.S. government's official web portal to all federal, state and local government web resources and services.